createdAt,value
2018-09-18T00:00:03.189Z,11.40
2018-09-18T00:02:31.988Z,10.63
2018-09-18T00:05:01.219Z,11.37
2018-09-18T00:07:30.015Z,10.70
2018-09-18T00:09:58.805Z,12.93
2018-09-18T00:12:28.323Z,12.97
2018-09-18T00:14:57.145Z,10.43
2018-09-18T00:17:25.941Z,10.50
2018-09-18T00:19:54.755Z,10.90
2018-09-18T00:22:24.125Z,10.13
2018-09-18T00:24:52.924Z,10.63
2018-09-18T00:27:22.116Z,10.40
2018-09-18T00:29:50.934Z,10.13
2018-09-18T00:32:19.752Z,9.77
2018-09-18T00:34:48.631Z,9.97
2018-09-18T00:37:17.485Z,11.80
2018-09-18T00:39:46.331Z,11.63
2018-09-18T00:42:15.187Z,9.07
2018-09-18T00:44:44.007Z,9.60
2018-09-18T00:47:12.805Z,10.03
2018-09-18T00:49:42.120Z,9.13
2018-09-18T00:52:11.053Z,9.33
2018-09-18T00:54:39.854Z,8.90
2018-09-18T00:57:08.703Z,9.90
2018-09-18T00:59:37.499Z,8.23
2018-09-18T01:02:06.430Z,11.73
2018-09-18T01:04:35.237Z,8.37
2018-09-18T01:07:04.264Z,8.30
2018-09-18T01:09:33.107Z,8.07
2018-09-18T01:12:02.387Z,8.70
2018-09-18T01:14:32.253Z,8.70
2018-09-18T01:17:01.059Z,7.93
2018-09-18T01:19:29.964Z,9.00
2018-09-18T01:21:58.773Z,8.27
2018-09-18T01:24:27.563Z,10.07
2018-09-18T01:26:56.420Z,8.13
2018-09-18T01:29:25.223Z,10.50
2018-09-18T01:31:54.043Z,8.83
2018-09-18T01:34:23.090Z,8.90
2018-09-18T01:36:51.889Z,8.10
2018-09-18T01:39:20.704Z,10.57
2018-09-18T01:41:49.517Z,7.87
2018-09-18T01:44:18.328Z,8.67
2018-09-18T01:46:47.122Z,8.00
2018-09-18T01:49:15.939Z,7.90
2018-09-18T01:51:44.731Z,9.60
2018-09-18T01:54:13.537Z,7.93
2018-09-18T01:56:42.721Z,8.63
2018-09-18T01:59:11.507Z,7.43
2018-09-18T02:01:40.317Z,8.83
2018-09-18T02:04:09.114Z,8.73
2018-09-18T02:06:38.758Z,7.83
2018-09-18T02:09:08.199Z,8.00
2018-09-18T02:11:37.021Z,10.43
2018-09-18T02:14:05.864Z,7.80
2018-09-18T02:16:35.162Z,8.23
2018-09-18T02:19:04.335Z,8.90
2018-09-18T02:21:33.162Z,8.60
2018-09-18T02:24:01.965Z,8.27
2018-09-18T02:26:30.827Z,8.00
2018-09-18T02:28:59.614Z,8.00
2018-09-18T02:31:28.434Z,8.90
2018-09-18T02:33:57.241Z,8.37
2018-09-18T02:36:26.034Z,8.67
2018-09-18T02:38:54.839Z,8.37
2018-09-18T02:41:23.790Z,8.27
2018-09-18T02:43:58.873Z,7.87
2018-09-18T02:46:27.710Z,8.20
2018-09-18T02:48:56.515Z,12.50
2018-09-18T02:51:25.326Z,11.13
2018-09-18T02:53:57.042Z,7.73
2018-09-18T02:56:25.884Z,8.67
2018-09-18T02:58:54.687Z,8.80
2018-09-18T03:01:23.970Z,9.03
2018-09-18T03:03:52.787Z,9.93
2018-09-18T03:06:21.697Z,8.83
2018-09-18T03:08:50.544Z,11.77
2018-09-18T03:11:19.439Z,9.33
2018-09-18T03:13:48.199Z,10.93
2018-09-18T03:16:17.058Z,10.30
2018-09-18T03:18:46.265Z,8.87
2018-09-18T03:21:15.018Z,8.77
2018-09-18T03:23:44.529Z,8.07
2018-09-18T03:26:13.326Z,9.73
2018-09-18T03:28:42.118Z,8.67
2018-09-18T03:31:10.956Z,8.60
2018-09-18T03:33:39.751Z,9.10
2018-09-18T03:36:08.570Z,8.93
2018-09-18T03:38:37.427Z,8.70
2018-09-18T03:41:06.226Z,9.47
2018-09-18T03:43:35.039Z,9.83
2018-09-18T03:46:11.014Z,8.73
2018-09-18T03:48:39.851Z,9.53
2018-09-18T03:51:08.758Z,11.43
2018-09-18T03:53:37.590Z,10.33
2018-09-18T03:56:06.473Z,9.57
2018-09-18T03:58:35.275Z,10.30
2018-09-18T04:01:04.083Z,9.70
2018-09-18T04:03:32.889Z,9.17
2018-09-18T04:06:01.691Z,9.60
2018-09-18T04:08:31.023Z,10.13
2018-09-18T04:11:00.048Z,10.43
2018-09-18T04:13:28.830Z,10.50
2018-09-18T04:16:04.258Z,10.10
2018-09-18T04:18:33.056Z,10.73
2018-09-18T04:21:02.662Z,11.20
2018-09-18T04:23:31.542Z,16.33
2018-09-18T04:26:00.350Z,13.90
2018-09-18T04:28:29.135Z,13.50
2018-09-18T04:30:58.410Z,15.90
2018-09-18T04:33:27.217Z,17.83
2018-09-18T04:35:56.015Z,19.80
2018-09-18T04:38:24.818Z,16.37
2018-09-18T04:40:53.666Z,19.43
2018-09-18T04:43:22.497Z,17.60
2018-09-18T04:45:51.375Z,13.20
2018-09-18T04:48:20.151Z,21.00
2018-09-18T04:50:48.951Z,14.80
2018-09-18T04:53:18.209Z,12.83
2018-09-18T04:55:47.018Z,12.30
2018-09-18T04:58:15.830Z,13.80
2018-09-18T05:00:44.673Z,11.53
2018-09-18T05:03:13.476Z,11.90
2018-09-18T05:05:42.283Z,12.13
2018-09-18T05:08:11.078Z,11.57
2018-09-18T05:10:39.868Z,12.07
2018-09-18T05:13:08.694Z,9.83
2018-09-18T05:15:37.938Z,10.77
2018-09-18T05:18:06.772Z,11.67
2018-09-18T05:20:35.569Z,10.90
2018-09-18T05:23:04.761Z,28.83
2018-09-18T05:25:33.588Z,11.53
2018-09-18T05:28:08.850Z,11.60
2018-09-18T05:30:37.665Z,11.87
2018-09-18T05:33:06.490Z,10.73
2018-09-18T05:35:35.636Z,11.73
2018-09-18T05:38:04.431Z,15.73
2018-09-18T05:40:33.239Z,17.63
2018-09-18T05:43:02.042Z,12.23
2018-09-18T05:45:30.870Z,17.33
2018-09-18T05:47:59.690Z,12.13
2018-09-18T05:50:28.514Z,12.97
2018-09-18T05:52:57.326Z,11.17
2018-09-18T05:55:26.145Z,16.50
2018-09-18T05:57:55.335Z,11.57
2018-09-18T06:00:24.142Z,20.77
2018-09-18T06:02:52.970Z,12.20
2018-09-18T06:05:21.837Z,11.88
2018-09-18T06:07:50.626Z,11.93
2018-09-18T06:10:19.465Z,16.67
2018-09-18T06:12:48.310Z,15.03
2018-09-18T06:15:17.118Z,15.03
2018-09-18T06:17:52.915Z,11.03
2018-09-18T06:20:21.821Z,13.27
2018-09-18T06:22:50.647Z,14.20
2018-09-18T06:25:19.826Z,14.53
2018-09-18T06:27:48.631Z,11.50
2018-09-18T06:30:17.429Z,14.93
2018-09-18T06:32:46.284Z,14.47
2018-09-18T06:35:15.454Z,11.67
2018-09-18T06:37:44.324Z,13.53
2018-09-18T06:40:13.342Z,13.00
2018-09-18T06:42:43.081Z,12.00
2018-09-18T06:45:26.472Z,14.40
2018-09-18T06:47:55.308Z,13.13
2018-09-18T06:50:24.107Z,14.17
2018-09-18T06:52:52.982Z,13.37
2018-09-18T06:55:21.795Z,14.37
2018-09-18T06:57:50.607Z,12.63
2018-09-18T07:00:19.930Z,16.27
2018-09-18T07:02:48.806Z,13.27
2018-09-18T07:05:17.690Z,15.20
2018-09-18T07:07:46.510Z,17.77
2018-09-18T07:10:15.353Z,14.03
2018-09-18T07:12:44.203Z,14.20
2018-09-18T07:15:13.094Z,13.95
2018-09-18T07:17:42.025Z,15.80
2018-09-18T07:20:10.841Z,16.07
2018-09-18T07:22:40.208Z,15.17
2018-09-18T07:25:09.814Z,15.60
2018-09-18T07:27:39.183Z,20.30
2018-09-18T07:30:09.851Z,18.98
2018-09-18T07:32:38.812Z,19.00
2018-09-18T07:35:08.763Z,16.10
2018-09-18T07:37:37.710Z,21.60
2018-09-18T07:40:07.738Z,46.77
2018-09-18T07:42:36.562Z,13.90
2018-09-18T07:45:06.126Z,14.43
2018-09-18T07:47:34.978Z,15.70
2018-09-18T07:50:03.797Z,14.20
2018-09-18T07:52:32.634Z,13.07
2018-09-18T07:55:01.430Z,14.53
2018-09-18T07:57:30.274Z,14.67
2018-09-18T07:59:59.086Z,12.93
2018-09-18T08:02:27.902Z,13.97
2018-09-18T08:04:56.707Z,14.47
2018-09-18T08:07:25.936Z,13.90
2018-09-18T08:09:54.738Z,12.63
2018-09-18T08:12:23.587Z,23.97
2018-09-18T08:14:52.508Z,12.43
2018-09-18T08:17:21.343Z,14.80
2018-09-18T08:19:50.324Z,12.67
2018-09-18T08:22:19.099Z,11.67
2018-09-18T08:24:47.920Z,12.87
2018-09-18T08:27:16.743Z,11.13
2018-09-18T08:29:46.359Z,15.57
2018-09-18T08:32:15.241Z,11.77
2018-09-18T08:34:44.122Z,11.37
2018-09-18T08:37:12.983Z,12.00
2018-09-18T08:39:41.859Z,13.37
2018-09-18T08:42:10.629Z,11.00
2018-09-18T08:44:39.480Z,11.77
2018-09-18T08:47:08.341Z,11.20
2018-09-18T08:49:37.142Z,10.70
2018-09-18T08:52:06.466Z,14.17
2018-09-18T08:54:35.176Z,11.93
2018-09-18T08:57:04.176Z,10.93
2018-09-18T08:59:32.975Z,10.93
2018-09-18T09:02:01.814Z,15.80
2018-09-18T09:04:30.652Z,11.07
2018-09-18T09:07:00.308Z,13.03
2018-09-18T09:09:29.196Z,12.73
2018-09-18T09:11:57.950Z,9.73
2018-09-18T09:14:27.473Z,10.87
2018-09-18T09:16:56.191Z,10.80
2018-09-18T09:19:25.006Z,11.13
2018-09-18T09:21:53.923Z,10.13
2018-09-18T09:24:22.666Z,11.73
2018-09-18T09:26:51.568Z,10.43
2018-09-18T09:29:20.358Z,15.87
2018-09-18T09:31:49.722Z,11.60
2018-09-18T09:34:18.560Z,13.43
2018-09-18T09:36:47.749Z,10.37
2018-09-18T09:39:16.539Z,11.03
2018-09-18T09:41:52.018Z,10.90
2018-09-18T09:44:20.812Z,10.43
2018-09-18T09:46:49.646Z,10.90
2018-09-18T09:49:18.487Z,17.50
2018-09-18T09:51:47.327Z,12.87
2018-09-18T09:54:16.164Z,15.80
2018-09-18T09:56:46.000Z,19.27
2018-09-18T09:59:14.773Z,14.83
2018-09-18T10:01:47.774Z,11.43
2018-09-18T10:04:16.719Z,11.73
2018-09-18T10:06:45.558Z,10.17
2018-09-18T10:09:14.406Z,12.83
2018-09-18T10:11:43.206Z,17.73
2018-09-18T10:14:12.018Z,11.17
2018-09-18T10:16:40.973Z,13.97
2018-09-18T10:19:09.950Z,12.13
2018-09-18T10:21:38.907Z,15.13
2018-09-18T10:24:08.528Z,14.43
2018-09-18T10:26:37.400Z,13.87
2018-09-18T10:29:06.390Z,16.70
2018-09-18T10:31:35.178Z,11.60
2018-09-18T10:34:04.565Z,10.03
2018-09-18T10:36:33.391Z,10.80
2018-09-18T10:39:02.310Z,15.03
2018-09-18T10:41:31.230Z,11.75
2018-09-18T10:43:59.956Z,11.10
2018-09-18T10:46:28.804Z,13.15
2018-09-18T10:48:58.291Z,17.60
2018-09-18T10:51:27.169Z,9.83
2018-09-18T10:53:56.112Z,9.18
2018-09-18T10:56:24.941Z,9.18
2018-09-18T10:58:53.766Z,8.88
2018-09-18T11:01:22.942Z,9.93
2018-09-18T11:03:51.774Z,9.93
2018-09-18T11:06:20.541Z,7.75
2018-09-18T11:08:49.354Z,12.35
2018-09-18T11:11:18.168Z,9.40
2018-09-18T11:13:47.034Z,9.73
2018-09-18T11:16:15.961Z,9.70
2018-09-18T11:18:44.777Z,12.13
2018-09-18T11:21:13.665Z,10.00
2018-09-18T11:23:43.111Z,15.55
2018-09-18T11:26:11.883Z,14.68
2018-09-18T11:28:40.821Z,7.65
2018-09-18T11:31:09.670Z,9.83
2018-09-18T11:33:38.475Z,8.75
2018-09-18T11:36:08.014Z,9.48
2018-09-18T11:38:36.891Z,9.60
2018-09-18T11:41:05.714Z,9.83
2018-09-18T11:43:34.628Z,6.92
2018-09-18T11:46:03.754Z,12.13
2018-09-18T11:48:32.487Z,7.97
2018-09-18T11:51:01.330Z,9.48
2018-09-18T11:53:30.172Z,10.20
2018-09-18T11:55:58.976Z,7.58
2018-09-18T11:58:27.872Z,6.65
2018-09-18T12:00:56.947Z,7.85
2018-09-18T12:03:25.756Z,6.35
2018-09-18T12:05:54.571Z,9.05
2018-09-18T12:08:23.823Z,6.55
2018-09-18T12:10:52.632Z,6.80
2018-09-18T12:13:21.495Z,6.55
2018-09-18T12:15:50.390Z,7.00
2018-09-18T12:18:19.222Z,8.43
2018-09-18T12:20:48.046Z,8.63
2018-09-18T12:23:16.898Z,7.60
2018-09-18T12:25:45.714Z,7.80
2018-09-18T12:28:14.532Z,7.25
2018-09-18T12:30:43.638Z,7.35
2018-09-18T12:33:12.474Z,6.72
2018-09-18T12:35:41.369Z,6.65
2018-09-18T12:38:10.430Z,5.92
2018-09-18T12:40:39.232Z,6.25
2018-09-18T12:43:14.935Z,6.08
2018-09-18T12:45:43.822Z,11.55
2018-09-18T12:48:12.666Z,12.07
2018-09-18T12:50:41.782Z,7.90
2018-09-18T12:53:10.583Z,6.05
2018-09-18T12:55:39.408Z,6.42
2018-09-18T12:58:08.220Z,6.15
2018-09-18T13:00:37.044Z,6.45
2018-09-18T13:03:05.875Z,6.97
2018-09-18T13:05:34.754Z,8.93
2018-09-18T13:08:03.588Z,6.58
2018-09-18T13:10:32.411Z,9.00
2018-09-18T13:13:01.540Z,10.95
2018-09-18T13:15:31.336Z,7.40
2018-09-18T13:18:00.146Z,10.70
2018-09-18T13:20:28.983Z,14.53
2018-09-18T13:22:57.805Z,8.33
2018-09-18T13:25:26.599Z,8.15
2018-09-18T13:27:55.550Z,8.55
2018-09-18T13:30:24.362Z,7.53
2018-09-18T13:32:53.144Z,9.00
2018-09-18T13:35:22.164Z,8.83
2018-09-18T13:37:50.996Z,6.87
2018-09-18T13:40:20.513Z,6.30
2018-09-18T13:42:49.363Z,10.65
2018-09-18T13:45:18.166Z,8.53
2018-09-18T13:47:47.103Z,13.00
2018-09-18T13:50:15.964Z,9.25
2018-09-18T13:52:44.803Z,11.08
2018-09-18T13:55:13.625Z,11.60
2018-09-18T13:57:42.966Z,7.08
2018-09-18T14:00:11.779Z,7.15
2018-09-18T14:02:40.625Z,5.83
2018-09-18T14:05:09.591Z,9.20
2018-09-18T14:07:38.455Z,5.95
2018-09-18T14:10:11.663Z,6.24
2018-09-18T14:12:40.583Z,7.80
2018-09-18T14:15:09.527Z,8.83
2018-09-18T14:17:38.847Z,9.28
2018-09-18T14:20:08.607Z,7.26
2018-09-18T14:22:37.650Z,6.83
2018-09-18T14:25:08.422Z,7.30
2018-09-18T14:27:37.261Z,8.30
2018-09-18T14:30:07.498Z,10.18
2018-09-18T14:32:36.388Z,7.05
2018-09-18T14:35:05.206Z,5.67
2018-09-18T14:37:33.990Z,6.83
2018-09-18T14:40:02.959Z,6.97
2018-09-18T14:42:32.274Z,12.05
2018-09-18T14:45:01.101Z,8.03
2018-09-18T14:47:29.942Z,6.47
2018-09-18T14:49:58.726Z,8.98
2018-09-18T14:52:27.539Z,6.75
2018-09-18T14:54:56.393Z,6.75
2018-09-18T14:57:25.246Z,7.67
2018-09-18T14:59:54.102Z,18.02
2018-09-18T15:02:23.399Z,8.98
2018-09-18T15:04:52.294Z,6.22
2018-09-18T15:07:21.239Z,9.88
2018-09-18T15:09:49.974Z,5.05
2018-09-18T15:12:18.910Z,11.73
2018-09-18T15:14:47.784Z,8.78
2018-09-18T15:17:16.571Z,9.43
2018-09-18T15:19:45.448Z,10.43
2018-09-18T15:22:14.306Z,6.92
2018-09-18T15:24:43.514Z,6.37
2018-09-18T15:27:12.406Z,4.85
2018-09-18T15:29:41.312Z,6.22
2018-09-18T15:32:10.178Z,6.80
2018-09-18T15:34:38.948Z,8.30
2018-09-18T15:37:07.760Z,7.75
2018-09-18T15:39:36.700Z,7.62
2018-09-18T15:42:05.507Z,6.47
2018-09-18T15:44:34.890Z,11.40
2018-09-18T15:47:04.247Z,9.03
2018-09-18T15:49:35.883Z,6.58
2018-09-18T15:52:04.828Z,7.97
2018-09-18T15:54:33.660Z,9.78
2018-09-18T15:57:02.515Z,10.23
2018-09-18T15:59:31.330Z,9.65
2018-09-18T16:02:00.137Z,5.92
2018-09-18T16:04:28.942Z,4.85
2018-09-18T16:06:57.783Z,8.83
2018-09-18T16:09:27.162Z,5.53
2018-09-18T16:11:56.091Z,5.08
2018-09-18T16:14:24.977Z,5.65
2018-09-18T16:16:53.857Z,6.85
2018-09-18T16:19:22.716Z,4.25
2018-09-18T16:21:51.552Z,4.47
2018-09-18T16:24:20.434Z,9.00
2018-09-18T16:26:49.261Z,5.17
2018-09-18T16:29:18.056Z,7.47
2018-09-18T16:31:47.163Z,4.92
2018-09-18T16:34:15.968Z,6.53
2018-09-18T16:36:44.849Z,5.22
2018-09-18T16:39:13.745Z,8.93
2018-09-18T16:41:43.242Z,5.85
2018-09-18T16:44:12.062Z,7.03
2018-09-18T16:46:41.251Z,4.80
2018-09-18T16:49:10.073Z,5.53
2018-09-18T16:51:38.895Z,9.13
2018-09-18T16:54:08.105Z,6.10
2018-09-18T16:56:36.955Z,6.70
2018-09-18T16:59:05.762Z,6.10
2018-09-18T17:01:34.660Z,6.65
2018-09-18T17:04:03.505Z,8.23
2018-09-18T17:06:32.611Z,9.25
2018-09-18T17:09:01.436Z,7.97
2018-09-18T17:11:30.377Z,6.30
2018-09-18T17:13:59.181Z,6.97
2018-09-18T17:16:28.388Z,9.68
2018-09-18T17:18:57.187Z,11.28
2018-09-18T17:21:26.055Z,13.65
2018-09-18T17:23:54.870Z,13.58
2018-09-18T17:26:23.712Z,14.75
2018-09-18T17:28:52.831Z,12.63
2018-09-18T17:31:21.710Z,14.20
2018-09-18T17:33:50.546Z,18.27
2018-09-18T17:36:19.431Z,26.17
2018-09-18T17:38:48.538Z,23.27
2018-09-18T17:41:17.411Z,24.27
2018-09-18T17:43:46.256Z,22.77
2018-09-18T17:46:15.248Z,18.62
2018-09-18T17:48:44.466Z,16.52
2018-09-18T17:51:13.551Z,28.27
2018-09-18T17:53:42.556Z,25.17
2018-09-18T17:56:11.346Z,24.65
2018-09-18T17:58:40.159Z,23.35
2018-09-18T18:01:09.386Z,19.15
2018-09-18T18:03:38.310Z,21.37
2018-09-18T18:06:07.206Z,26.93
2018-09-18T18:08:36.055Z,34.00
2018-09-18T18:11:05.072Z,25.93
2018-09-18T18:13:34.446Z,33.77
2018-09-18T18:16:03.311Z,23.35
2018-09-18T18:18:32.147Z,25.57
2018-09-18T18:21:00.980Z,21.63
2018-09-18T18:23:30.372Z,26.07
2018-09-18T18:25:59.136Z,22.23
2018-09-18T18:28:27.999Z,22.70
2018-09-18T18:30:56.849Z,17.77
2018-09-18T18:33:25.734Z,23.70
2018-09-18T18:35:54.487Z,16.10
2018-09-18T18:38:23.296Z,28.10
2018-09-18T18:40:52.374Z,22.53
2018-09-18T18:43:21.215Z,22.90
2018-09-18T18:45:50.356Z,29.50
2018-09-18T18:48:19.258Z,24.40
2018-09-18T18:50:48.722Z,25.07
2018-09-18T18:53:17.588Z,25.60
2018-09-18T18:55:46.431Z,25.63
2018-09-18T18:58:15.292Z,30.90
2018-09-18T19:00:44.231Z,24.67
2018-09-18T19:03:13.011Z,22.00
2018-09-18T19:05:41.818Z,22.00
2018-09-18T19:08:11.026Z,29.13
2018-09-18T19:10:39.865Z,20.13
2018-09-18T19:13:08.667Z,24.83
2018-09-18T19:15:37.502Z,22.30
2018-09-18T19:18:06.346Z,20.33
2018-09-18T19:20:35.186Z,21.30
2018-09-18T19:23:04.028Z,21.57
2018-09-18T19:25:32.972Z,24.50
2018-09-18T19:28:01.754Z,26.67
2018-09-18T19:30:30.996Z,22.27
2018-09-18T19:32:59.864Z,24.43
2018-09-18T19:35:28.694Z,21.23
2018-09-18T19:37:57.570Z,22.80
2018-09-18T19:40:26.379Z,22.05
2018-09-18T19:42:55.211Z,31.30
2018-09-18T19:45:30.404Z,25.70
2018-09-18T19:47:59.238Z,24.47
2018-09-18T19:50:28.107Z,22.77
2018-09-18T19:52:57.744Z,23.80
2018-09-18T19:55:26.608Z,20.68
2018-09-18T19:57:55.400Z,27.30
2018-09-18T20:00:24.265Z,21.68
2018-09-18T20:02:53.067Z,23.23
2018-09-18T20:05:21.904Z,19.57
2018-09-18T20:07:50.783Z,24.70
2018-09-18T20:10:19.602Z,20.00
2018-09-18T20:12:48.490Z,27.30
2018-09-18T20:15:17.810Z,21.10
2018-09-18T20:17:46.638Z,19.53
2018-09-18T20:20:15.452Z,21.13
2018-09-18T20:22:44.435Z,23.00
2018-09-18T20:25:13.333Z,17.87
2018-09-18T20:27:42.165Z,18.90
2018-09-18T20:30:11.026Z,24.60
2018-09-18T20:32:39.832Z,21.73
2018-09-18T20:35:08.675Z,17.50
2018-09-18T20:37:37.807Z,18.73
2018-09-18T20:40:07.798Z,19.00
2018-09-18T20:42:36.673Z,17.73
2018-09-18T20:45:05.509Z,18.10
2018-09-18T20:47:34.303Z,16.97
2018-09-18T20:50:03.107Z,14.30
2018-09-18T20:52:31.951Z,16.33
2018-09-18T20:55:01.267Z,18.33
2018-09-18T20:57:30.074Z,17.43
2018-09-18T20:59:59.257Z,17.93
2018-09-18T21:02:28.056Z,17.80
2018-09-18T21:04:56.982Z,19.37
2018-09-18T21:07:25.802Z,19.93
2018-09-18T21:10:01.483Z,18.50
2018-09-18T21:12:30.321Z,21.03
2018-09-18T21:14:59.130Z,22.23
2018-09-18T21:17:27.942Z,22.33
2018-09-18T21:19:57.272Z,19.00
2018-09-18T21:22:26.145Z,21.37
2018-09-18T21:26:08.887Z,22.97
2018-09-18T21:28:37.673Z,20.60
2018-09-18T21:31:06.503Z,21.53
2018-09-18T21:33:35.331Z,20.23
2018-09-18T21:36:04.170Z,20.33
2018-09-18T21:38:33.091Z,19.37
2018-09-18T21:41:02.009Z,25.03
2018-09-18T21:43:31.385Z,17.23
2018-09-18T21:46:00.201Z,15.07
2018-09-18T21:48:29.009Z,21.30
2018-09-18T21:50:57.837Z,19.60
2018-09-18T21:53:26.638Z,17.50
2018-09-18T21:55:56.006Z,20.17
2018-09-18T21:58:24.842Z,16.07
2018-09-18T22:00:53.641Z,19.77
2018-09-18T22:03:23.043Z,16.60
2018-09-18T22:05:51.858Z,20.23
2018-09-18T22:08:20.669Z,17.30
2018-09-18T22:10:49.498Z,14.57
2018-09-18T22:13:18.354Z,16.47
2018-09-18T22:15:47.168Z,18.57
2018-09-18T22:18:15.984Z,16.77
2018-09-18T22:20:44.819Z,16.90
2018-09-18T22:23:13.646Z,15.73
2018-09-18T22:25:42.963Z,15.67
2018-09-18T22:28:11.795Z,13.70
2018-09-18T22:30:40.626Z,17.47
2018-09-18T22:33:09.459Z,17.60
2018-09-18T22:35:38.359Z,14.93
2018-09-18T22:38:07.344Z,20.50
2018-09-18T22:40:36.183Z,15.90
2018-09-18T22:43:05.037Z,14.30
2018-09-18T22:45:33.800Z,15.67
2018-09-18T22:48:03.196Z,14.60
2018-09-18T22:50:31.995Z,13.80
2018-09-18T22:53:00.792Z,15.60
2018-09-18T22:55:29.718Z,15.37
2018-09-18T22:57:59.171Z,14.83
2018-09-18T23:00:27.964Z,14.97
2018-09-18T23:02:56.786Z,14.23
2018-09-18T23:05:25.628Z,16.43
2018-09-18T23:07:54.441Z,13.67
2018-09-18T23:10:23.611Z,19.05
2018-09-18T23:12:52.436Z,12.87
2018-09-18T23:15:21.249Z,14.67
2018-09-18T23:17:50.058Z,13.87
2018-09-18T23:20:18.858Z,14.20
2018-09-18T23:22:47.669Z,15.53
2018-09-18T23:25:16.502Z,13.43
2018-09-18T23:27:45.311Z,13.43
2018-09-18T23:30:14.114Z,14.07
2018-09-18T23:32:43.184Z,14.13
2018-09-18T23:35:11.987Z,13.33
2018-09-18T23:37:40.785Z,14.60
2018-09-18T23:40:09.645Z,14.03
2018-09-18T23:42:38.448Z,14.30
2018-09-18T23:45:08.407Z,13.73
2018-09-18T23:47:37.241Z,14.67
2018-09-18T23:50:07.194Z,12.40
2018-09-18T23:52:35.990Z,13.27
2018-09-18T23:55:05.187Z,13.47
2018-09-18T23:57:34.005Z,13.57
